This is the latest recevied weather packets stored in our database for station/object KD5HIA. If no packets are shown the sender has not sent any weather packets the latest 10 day(s).
| Time | Temp. | Humidity | Pressure | Rain* | Wind** | Luminosity | Snow |
|---|---|---|---|---|---|---|---|
| 1777406117 | 33.33° C | 40% | 1011.9 hPa | 0 mm | - | 688 W/m² | - |
| 1777405517 | 33.33° C | 42% | 1011.9 hPa | 0 mm | - | 766 W/m² | - |
| 1777404916 | 32.78° C | 44% | 1012 hPa | 0 mm | - | 838 W/m² | - |
| 1777404316 | 32.22° C | 49% | 1012 hPa | 0 mm | - | 875 W/m² | - |
| 1777403717 | 31.11° C | 54% | 1011.9 hPa | 0 mm | - | 808 W/m² | - |
| 1777403117 | 30° C | 53% | 1011.6 hPa | 0 mm | - | 362 W/m² | - |
| 1777402516 | 30° C | 58% | 1012 hPa | 0 mm | - | 523 W/m² | - |
| 1777401916 | 30.56° C | 58% | 1012.2 hPa | 0 mm | - | 681 W/m² | - |
| 1777401316 | 29.44° C | 63% | 1012.2 hPa | 0 mm | - | 441 W/m² | - |
| 1777400716 | 30° C | 64% | 1012.3 hPa | 0 mm | - | 530 W/m² | - |
| 1777400117 | 28.89° C | 66% | 1012.4 hPa | 0 mm | - | 413 W/m² | - |
| 1777399516 | 28.89° C | 67% | 1012.4 hPa | 0 mm | - | 386 W/m² | - |
| 1777398917 | 28.89° C | 68% | 1012.3 hPa | 0 mm | - | 382 W/m² | - |
| 1777398316 | 28.33° C | 69% | 1012.6 hPa | 0 mm | - | 371 W/m² | - |
| 1777397716 | 28.33° C | 70% | 1013 hPa | 0 mm | - | 355 W/m² | - |
| 1777397116 | 27.78° C | 71% | 1013 hPa | 0 mm | - | 311 W/m² | - |
| 1777396516 | 27.78° C | 71% | 1012.8 hPa | 0 mm | - | 291 W/m² | - |
| 1777395917 | 27.78° C | 72% | 1012.8 hPa | 0 mm | - | 285 W/m² | - |
| 1777395316 | 27.22° C | 73% | 1013 hPa | 0 mm | - | 316 W/m² | - |
| 1777394716 | 27.22° C | 74% | 1013.1 hPa | 0 mm | - | 281 W/m² | - |
| 1777394116 | 26.67° C | 75% | 1013.2 hPa | 0 mm | - | 246 W/m² | - |
| 1777393516 | 26.67° C | 77% | 1013.1 hPa | 0 mm | - | 230 W/m² | - |
| 1777392916 | 26.11° C | 77% | 1012.7 hPa | 0 mm | - | 199 W/m² | - |
| 1777392316 | 26.11° C | 78% | 1012.9 hPa | 0 mm | - | 193 W/m² | - |
| 1777391716 | 26.11° C | 78% | 1012.9 hPa | 0 mm | - | 197 W/m² | - |
* Rain latest hour (hover to see other rain measurements)
** Current wind speed in m/s (hover to see current wind gust speed)